Terminal Aerodrome Forecast
Issued by NWS Upton, NY

Home | Current Version | Previous Version | Text Only | Print | Product List | Glossary On
Versions: 1 2 3 4 5 6 7 8 9 10 11 12 13 14 15 16 17 18 19 20 21 22 23 24 25 26 27 28 29 30 31 32 33 34 35 36 37 38 39 40 41 42 43 44 45 46 47 48 49 50
000
FTUS41 KOKX 240543 CCC
TAFBDR
TAF COR
KBDR 240543Z 2406/2506 19004KT 6SM BR BKN006 OVC013
      TEMPO 2406/2410 3SM -DZ BR BKN005 OVC007
     FM241300 23007KT P6SM OVC018
     FM241600 25007KT P6SM BKN020 OVC035
     FM242000 32008KT P6SM BKN035
     FM250100 35009KT P6SM SCT060=

USA.gov is the U.S. government's official web portal to all federal, state and local government web resources and services.